FDX444 KROC-KMEM
Flight info
| Callsign | FDX444 |
|---|---|
| Flight time | N/A |
| Altitude | 36000 |
| Route | BURST CREEP PXV BLUZZ5 |
| Aircraft | A306/H-SDE3FGHIRWY/LB1 |
Departure
| Time | N/A |
|---|---|
| Airport | Frederick Douglass Greater Rochester International Airport (KROC) |
Arrival
| Time | 2026-05-03 21:05 |
|---|---|
| Airport | Memphis International Airport (KMEM) |
| Time | Latitude | Longitude | Altitude | Speed | Heading |
|---|---|---|---|---|---|
| 2026-05-03 20:15 | 38.83501 | -86.23852 | 36000 ft | 466 kts | 233° |
| 2026-05-03 20:15 | 38.79642 | -86.30502 | 36000 ft | 466 kts | 233° |
| 2026-05-03 20:16 | 38.75776 | -86.37148 | 36000 ft | 466 kts | 233° |
| 2026-05-03 20:16 | 38.71883 | -86.43827 | 36000 ft | 466 kts | 233° |
| 2026-05-03 20:17 | 38.68066 | -86.50362 | 35990 ft | 449 kts | 233° |
| 2026-05-03 20:17 | 38.66229 | -86.53504 | 35986 ft | 434 kts | 233° |
| 2026-05-03 20:17 | 38.64458 | -86.56529 | 35985 ft | 421 kts | 233° |
| 2026-05-03 20:18 | 38.61004 | -86.62420 | 35994 ft | 413 kts | 233° |
| 2026-05-03 20:18 | 38.57544 | -86.68311 | 36003 ft | 419 kts | 233° |
| 2026-05-03 20:19 | 38.54040 | -86.74266 | 36000 ft | 420 kts | 233° |
| 2026-05-03 20:19 | 38.50532 | -86.80217 | 35999 ft | 419 kts | 233° |
| 2026-05-03 20:20 | 38.47046 | -86.86120 | 35999 ft | 419 kts | 233° |
| 2026-05-03 20:20 | 38.43549 | -86.92030 | 36000 ft | 419 kts | 233° |
| 2026-05-03 20:21 | 38.40040 | -86.97951 | 36000 ft | 419 kts | 233° |
| 2026-05-03 20:21 | 38.36543 | -87.03841 | 36000 ft | 419 kts | 233° |
| 2026-05-03 20:22 | 38.33029 | -87.09747 | 36000 ft | 419 kts | 233° |
| 2026-05-03 20:22 | 38.29530 | -87.15619 | 36000 ft | 419 kts | 233° |
| 2026-05-03 20:23 | 38.26015 | -87.21505 | 36000 ft | 419 kts | 233° |
| 2026-05-03 20:23 | 38.22503 | -87.27377 | 35999 ft | 419 kts | 233° |
| 2026-05-03 20:24 | 38.18962 | -87.33286 | 36000 ft | 419 kts | 233° |
| 2026-05-03 20:24 | 38.15441 | -87.39153 | 36000 ft | 419 kts | 233° |
| 2026-05-03 20:25 | 38.11915 | -87.45016 | 35999 ft | 419 kts | 233° |
| 2026-05-03 20:25 | 38.08403 | -87.50847 | 35999 ft | 419 kts | 233° |
| 2026-05-03 20:26 | 38.04852 | -87.56731 | 36000 ft | 419 kts | 233° |
| 2026-05-03 20:26 | 38.01331 | -87.62554 | 36000 ft | 419 kts | 233° |
| 2026-05-03 20:27 | 37.97791 | -87.68399 | 36000 ft | 419 kts | 232° |
| 2026-05-03 20:27 | 37.94249 | -87.74236 | 35716 ft | 415 kts | 232° |
| 2026-05-03 20:27 | 37.92299 | -87.76877 | 35207 ft | 414 kts | 216° |
| 2026-05-03 20:28 | 37.89805 | -87.78651 | 34663 ft | 415 kts | 204° |
| 2026-05-03 20:28 | 37.87113 | -87.80065 | 34110 ft | 416 kts | 202° |
| 2026-05-03 20:28 | 37.84493 | -87.81453 | 34006 ft | 407 kts | 203° |
| 2026-05-03 20:29 | 37.79396 | -87.84459 | 34005 ft | 410 kts | 206° |
| 2026-05-03 20:29 | 37.74188 | -87.87667 | 34007 ft | 427 kts | 206° |
| 2026-05-03 20:30 | 37.68777 | -87.90981 | 34007 ft | 441 kts | 206° |
| 2026-05-03 20:30 | 37.63153 | -87.94410 | 34006 ft | 457 kts | 206° |
| 2026-05-03 20:31 | 37.57377 | -87.97920 | 34004 ft | 468 kts | 205° |
| 2026-05-03 20:31 | 37.51496 | -88.01489 | 34002 ft | 473 kts | 206° |
| 2026-05-03 20:32 | 37.45530 | -88.05111 | 34000 ft | 474 kts | 206° |
| 2026-05-03 20:32 | 37.39646 | -88.08676 | 33999 ft | 473 kts | 206° |
| 2026-05-03 20:33 | 37.33717 | -88.12262 | 33999 ft | 472 kts | 206° |
| 2026-05-03 20:33 | 37.27833 | -88.15813 | 34000 ft | 472 kts | 206° |
| 2026-05-03 20:34 | 37.21953 | -88.19357 | 34000 ft | 472 kts | 206° |
| 2026-05-03 20:34 | 37.16018 | -88.22927 | 33999 ft | 472 kts | 206° |
| 2026-05-03 20:35 | 37.10083 | -88.26492 | 33999 ft | 472 kts | 206° |
| 2026-05-03 20:35 | 37.04179 | -88.30014 | 33999 ft | 472 kts | 205° |
| 2026-05-03 20:36 | 36.98268 | -88.33547 | 33999 ft | 472 kts | 206° |
| 2026-05-03 20:36 | 36.92350 | -88.37086 | 33920 ft | 471 kts | 206° |
| 2026-05-03 20:36 | 36.89437 | -88.38824 | 33554 ft | 465 kts | 206° |
| 2026-05-03 20:37 | 36.86550 | -88.40544 | 32885 ft | 464 kts | 206° |
| 2026-05-03 20:37 | 36.83630 | -88.42284 | 32129 ft | 465 kts | 206° |
| 2026-05-03 20:37 | 36.80708 | -88.44022 | 31500 ft | 463 kts | 206° |
| 2026-05-03 20:37 | 36.77825 | -88.45736 | 31026 ft | 459 kts | 206° |
| 2026-05-03 20:38 | 36.74952 | -88.47443 | 30623 ft | 456 kts | 206° |
| 2026-05-03 20:38 | 36.72139 | -88.49113 | 30234 ft | 452 kts | 206° |
| 2026-05-03 20:38 | 36.69316 | -88.50787 | 29798 ft | 448 kts | 206° |
| 2026-05-03 20:38 | 36.66513 | -88.52447 | 29302 ft | 445 kts | 206° |
| 2026-05-03 20:39 | 36.63757 | -88.54080 | 28809 ft | 443 kts | 206° |
| 2026-05-03 20:39 | 36.60981 | -88.55722 | 28336 ft | 440 kts | 206° |
| 2026-05-03 20:39 | 36.58232 | -88.57347 | 27886 ft | 437 kts | 206° |
| 2026-05-03 20:39 | 36.55502 | -88.58960 | 27449 ft | 433 kts | 206° |
| 2026-05-03 20:40 | 36.52811 | -88.60548 | 27018 ft | 430 kts | 206° |
| 2026-05-03 20:40 | 36.50142 | -88.62122 | 26585 ft | 427 kts | 206° |
| 2026-05-03 20:40 | 36.47468 | -88.63699 | 26145 ft | 425 kts | 206° |
| 2026-05-03 20:40 | 36.44813 | -88.65262 | 25704 ft | 422 kts | 205° |
| 2026-05-03 20:41 | 36.42176 | -88.66814 | 25262 ft | 419 kts | 205° |
| 2026-05-03 20:41 | 36.39531 | -88.68368 | 24817 ft | 416 kts | 205° |
| 2026-05-03 20:41 | 36.36960 | -88.69880 | 24381 ft | 413 kts | 205° |
| 2026-05-03 20:41 | 36.34381 | -88.71394 | 23942 ft | 410 kts | 205° |
| 2026-05-03 20:42 | 36.31810 | -88.72902 | 23502 ft | 408 kts | 205° |
| 2026-05-03 20:42 | 36.29249 | -88.74404 | 23059 ft | 405 kts | 205° |
| 2026-05-03 20:42 | 36.26711 | -88.75883 | 22617 ft | 402 kts | 205° |
| 2026-05-03 20:42 | 36.24214 | -88.77332 | 22178 ft | 399 kts | 205° |
| 2026-05-03 20:43 | 36.21684 | -88.78805 | 21728 ft | 397 kts | 205° |
| 2026-05-03 20:43 | 36.19192 | -88.80259 | 21282 ft | 394 kts | 205° |
| 2026-05-03 20:43 | 36.16736 | -88.81694 | 20841 ft | 392 kts | 205° |
| 2026-05-03 20:43 | 36.14304 | -88.83114 | 20404 ft | 389 kts | 205° |
| 2026-05-03 20:44 | 36.11871 | -88.84534 | 19962 ft | 386 kts | 205° |
| 2026-05-03 20:44 | 36.09452 | -88.85944 | 19520 ft | 384 kts | 205° |
| 2026-05-03 20:44 | 36.07057 | -88.87339 | 19076 ft | 381 kts | 205° |
| 2026-05-03 20:44 | 36.04672 | -88.88728 | 18628 ft | 379 kts | 205° |
| 2026-05-03 20:45 | 36.02309 | -88.90102 | 18181 ft | 376 kts | 205° |
| 2026-05-03 20:45 | 35.99952 | -88.91473 | 17732 ft | 374 kts | 205° |
| 2026-05-03 20:45 | 35.97600 | -88.92839 | 17282 ft | 371 kts | 205° |
| 2026-05-03 20:45 | 35.95298 | -88.94176 | 16839 ft | 369 kts | 205° |
| 2026-05-03 20:46 | 35.92955 | -88.95535 | 16384 ft | 366 kts | 205° |
| 2026-05-03 20:46 | 35.90687 | -88.96850 | 15940 ft | 364 kts | 205° |
| 2026-05-03 20:46 | 35.88411 | -88.98169 | 15492 ft | 361 kts | 205° |
| 2026-05-03 20:46 | 35.86132 | -88.99489 | 15039 ft | 359 kts | 205° |
| 2026-05-03 20:47 | 35.83906 | -89.00777 | 14824 ft | 350 kts | 205° |
| 2026-05-03 20:47 | 35.81707 | -89.02049 | 14811 ft | 351 kts | 205° |
| 2026-05-03 20:47 | 35.79483 | -89.03335 | 14807 ft | 356 kts | 205° |
| 2026-05-03 20:47 | 35.77227 | -89.04639 | 14802 ft | 357 kts | 205° |
| 2026-05-03 20:48 | 35.74985 | -89.05933 | 14801 ft | 358 kts | 205° |
| 2026-05-03 20:48 | 35.72843 | -89.07505 | 14722 ft | 355 kts | 218° |
| 2026-05-03 20:48 | 35.71047 | -89.09516 | 14305 ft | 353 kts | 225° |
| 2026-05-03 20:48 | 35.69341 | -89.11726 | 13785 ft | 352 kts | 227° |
| 2026-05-03 20:49 | 35.67704 | -89.13901 | 13460 ft | 345 kts | 227° |
| 2026-05-03 20:49 | 35.66090 | -89.16026 | 13328 ft | 334 kts | 227° |
| 2026-05-03 20:49 | 35.64521 | -89.18072 | 13195 ft | 322 kts | 226° |
| 2026-05-03 20:49 | 35.63015 | -89.20024 | 13063 ft | 312 kts | 226° |
| 2026-05-03 20:50 | 35.61537 | -89.21935 | 12929 ft | 302 kts | 226° |
| 2026-05-03 20:50 | 35.60152 | -89.23810 | 12797 ft | 292 kts | 229° |
| 2026-05-03 20:50 | 35.58853 | -89.25696 | 12665 ft | 283 kts | 230° |
| 2026-05-03 20:50 | 35.57630 | -89.27509 | 12478 ft | 277 kts | 230° |
| 2026-05-03 20:51 | 35.56399 | -89.29343 | 12187 ft | 274 kts | 231° |
| 2026-05-03 20:51 | 35.55201 | -89.31131 | 11867 ft | 273 kts | 231° |
| 2026-05-03 20:51 | 35.54004 | -89.32919 | 11544 ft | 272 kts | 231° |
| 2026-05-03 20:51 | 35.52796 | -89.34721 | 11222 ft | 271 kts | 231° |
| 2026-05-03 20:52 | 35.51617 | -89.36481 | 10910 ft | 269 kts | 231° |
| 2026-05-03 20:52 | 35.50418 | -89.38271 | 10592 ft | 268 kts | 231° |
| 2026-05-03 20:52 | 35.49313 | -89.40060 | 10276 ft | 266 kts | 241° |
| 2026-05-03 20:52 | 35.48502 | -89.42110 | 9964 ft | 265 kts | 246° |
| 2026-05-03 20:53 | 35.47757 | -89.44163 | 9639 ft | 264 kts | 246° |
| 2026-05-03 20:53 | 35.46994 | -89.46203 | 9323 ft | 263 kts | 245° |
| 2026-05-03 20:53 | 35.46218 | -89.48221 | 9010 ft | 262 kts | 245° |
| 2026-05-03 20:53 | 35.45432 | -89.50232 | 8692 ft | 260 kts | 244° |
| 2026-05-03 20:54 | 35.44638 | -89.52240 | 8372 ft | 259 kts | 244° |
| 2026-05-03 20:54 | 35.43075 | -89.56166 | 7739 ft | 257 kts | 244° |
| 2026-05-03 20:54 | 35.42284 | -89.58144 | 7417 ft | 256 kts | 244° |
| 2026-05-03 20:55 | 35.41508 | -89.60084 | 7099 ft | 254 kts | 244° |
| 2026-05-03 20:55 | 35.40735 | -89.62014 | 6780 ft | 253 kts | 244° |
| 2026-05-03 20:55 | 35.39962 | -89.63942 | 6460 ft | 252 kts | 244° |
| 2026-05-03 20:55 | 35.39219 | -89.65792 | 6152 ft | 251 kts | 243° |
| 2026-05-03 20:56 | 35.38460 | -89.67683 | 5835 ft | 250 kts | 243° |
| 2026-05-03 20:56 | 35.37687 | -89.69607 | 5511 ft | 249 kts | 243° |
| 2026-05-03 20:56 | 35.36931 | -89.71488 | 5195 ft | 247 kts | 243° |
| 2026-05-03 20:56 | 35.36165 | -89.73391 | 4873 ft | 246 kts | 243° |
| 2026-05-03 20:57 | 35.35416 | -89.75251 | 4559 ft | 245 kts | 243° |
| 2026-05-03 20:57 | 35.34662 | -89.77124 | 4243 ft | 244 kts | 243° |
| 2026-05-03 20:57 | 35.33913 | -89.78982 | 3930 ft | 243 kts | 243° |
| 2026-05-03 20:57 | 35.33161 | -89.80847 | 3617 ft | 242 kts | 243° |
| 2026-05-03 20:58 | 35.32422 | -89.82680 | 3308 ft | 241 kts | 243° |
| 2026-05-03 20:58 | 35.31685 | -89.84505 | 2999 ft | 240 kts | 243° |
| 2026-05-03 20:58 | 35.30948 | -89.86330 | 2811 ft | 234 kts | 243° |
| 2026-05-03 20:58 | 35.30219 | -89.88135 | 2806 ft | 238 kts | 243° |
| 2026-05-03 20:59 | 35.29485 | -89.89951 | 2803 ft | 238 kts | 243° |
| 2026-05-03 20:59 | 35.28749 | -89.91769 | 2802 ft | 239 kts | 243° |
| 2026-05-03 20:59 | 35.28004 | -89.93610 | 2801 ft | 239 kts | 243° |
| 2026-05-03 20:59 | 35.27269 | -89.95424 | 2801 ft | 239 kts | 243° |
| 2026-05-03 21:00 | 35.26199 | -89.96936 | 2810 ft | 232 kts | 209° |
| 2026-05-03 21:00 | 35.25227 | -89.97407 | 2811 ft | 222 kts | 192° |
| 2026-05-03 21:00 | 35.23203 | -89.97644 | 2803 ft | 217 kts | 181° |
| 2026-05-03 21:00 | 35.21713 | -89.97646 | 2799 ft | 215 kts | 179° |
| 2026-05-03 21:01 | 35.20251 | -89.97620 | 2763 ft | 206 kts | 179° |
| 2026-05-03 21:01 | 35.18832 | -89.97590 | 2483 ft | 202 kts | 179° |
| 2026-05-03 21:01 | 35.17445 | -89.97560 | 2266 ft | 195 kts | 179° |
| 2026-05-03 21:01 | 35.16119 | -89.97532 | 1970 ft | 192 kts | 179° |
| 2026-05-03 21:02 | 35.14793 | -89.97504 | 1819 ft | 184 kts | 179° |
| 2026-05-03 21:02 | 35.13526 | -89.97477 | 1861 ft | 182 kts | 179° |
| 2026-05-03 21:02 | 35.12309 | -89.97452 | 1797 ft | 170 kts | 179° |
| 2026-05-03 21:02 | 35.11128 | -89.97427 | 1822 ft | 166 kts | 179° |
| 2026-05-03 21:03 | 35.10071 | -89.97405 | 1792 ft | 143 kts | 179° |
| 2026-05-03 21:03 | 35.09052 | -89.97390 | 1528 ft | 150 kts | 179° |
| 2026-05-03 21:03 | 35.08025 | -89.97382 | 1061 ft | 144 kts | 179° |
| 2026-05-03 21:03 | 35.07121 | -89.97345 | 874 ft | 126 kts | 179° |
| 2026-05-03 21:04 | 35.06233 | -89.97329 | 687 ft | 127 kts | 179° |
| 2026-05-03 21:04 | 35.05318 | -89.97315 | 501 ft | 132 kts | 179° |
| 2026-05-03 21:04 | 35.04465 | -89.97289 | 349 ft | 103 kts | 178° |
| 2026-05-03 21:04 | 35.03986 | -89.97279 | 349 ft | 50 kts | 178° |
| 2026-05-03 21:05 | 35.03797 | -89.97286 | 349 ft | 7 kts | 152° |
| 2026-05-03 21:05 | 35.03798 | -89.97202 | 349 ft | 12 kts | 86° |
| 2026-05-03 21:05 | 35.03852 | -89.97092 | 349 ft | 18 kts | 6° |
| 2026-05-03 21:05 | 35.03987 | -89.97096 | 349 ft | 25 kts | 358° |
| 2026-05-03 21:06 | 35.04186 | -89.97099 | 349 ft | 41 kts | 0° |
| 2026-05-03 21:06 | 35.04416 | -89.97076 | 349 ft | 27 kts | 9° |
| 2026-05-03 21:06 | 35.04627 | -89.97062 | 349 ft | 34 kts | 360° |
| 2026-05-03 21:06 | 35.04859 | -89.97069 | 349 ft | 35 kts | 360° |
| 2026-05-03 21:07 | 35.05089 | -89.97054 | 349 ft | 35 kts | 10° |
| 2026-05-03 21:07 | 35.05333 | -89.97005 | 349 ft | 38 kts | 9° |
| 2026-05-03 21:07 | 35.05569 | -89.96957 | 349 ft | 26 kts | 9° |
| 2026-05-03 21:07 | 35.05745 | -89.96926 | 349 ft | 29 kts | 9° |
| 2026-05-03 21:08 | 35.05906 | -89.96892 | 349 ft | 15 kts | 25° |
| 2026-05-03 21:08 | 35.05998 | -89.96876 | 349 ft | 7 kts | 0° |
| 2026-05-03 21:08 | 35.06000 | -89.96876 | 349 ft | 0 kts | 1° |